createdAt,value
2019-05-13T00:00:53.920Z,1.55
2019-05-13T00:03:24.040Z,1.60
2019-05-13T00:05:53.811Z,1.32
2019-05-13T00:08:24.914Z,1.60
2019-05-13T00:10:54.610Z,1.50
2019-05-13T00:13:23.907Z,1.70
2019-05-13T00:15:54.386Z,1.67
2019-05-13T00:18:23.960Z,1.30
2019-05-13T00:20:54.215Z,1.50
2019-05-13T00:23:23.686Z,1.40
2019-05-13T00:25:54.556Z,1.57
2019-05-13T00:28:24.655Z,1.47
2019-05-13T00:30:54.339Z,1.42
2019-05-13T00:33:24.494Z,1.40
2019-05-13T00:35:54.119Z,1.30
2019-05-13T00:38:24.596Z,1.60
2019-05-13T00:40:54.693Z,1.20
2019-05-13T00:43:24.577Z,1.60
2019-05-13T00:45:54.186Z,1.32
2019-05-13T00:48:23.794Z,1.45
2019-05-13T00:50:54.503Z,1.60
2019-05-13T00:53:24.140Z,1.65
2019-05-13T00:55:53.755Z,1.60
2019-05-13T00:58:24.233Z,1.60
2019-05-13T01:00:54.686Z,1.27
2019-05-13T01:03:27.827Z,1.50
2019-05-13T01:05:55.059Z,1.55
2019-05-13T01:08:25.578Z,1.60
2019-05-13T01:10:54.866Z,1.47
2019-05-13T01:13:24.202Z,1.72
2019-05-13T01:15:54.368Z,1.30
2019-05-13T01:18:24.117Z,1.55
2019-05-13T01:20:53.855Z,1.35
2019-05-13T01:23:24.006Z,1.52
2019-05-13T01:25:54.433Z,1.60
2019-05-13T01:28:24.190Z,1.50
2019-05-13T01:30:54.059Z,1.32
2019-05-13T01:33:23.747Z,1.67
2019-05-13T01:35:53.781Z,1.42
2019-05-13T01:38:24.095Z,1.50
2019-05-13T01:40:54.054Z,1.52
2019-05-13T01:43:24.568Z,1.60
2019-05-13T01:45:54.030Z,1.62
2019-05-13T01:48:24.048Z,1.65
2019-05-13T01:50:54.282Z,1.55
2019-05-13T01:53:24.417Z,1.70
2019-05-13T01:55:53.806Z,1.75
2019-05-13T01:58:23.684Z,1.70
2019-05-13T02:00:55.256Z,1.47
2019-05-13T02:03:24.714Z,1.90
2019-05-13T02:05:54.557Z,1.98
2019-05-13T02:08:24.540Z,1.80
2019-05-13T02:10:55.710Z,2.10
2019-05-13T02:13:25.507Z,1.98
2019-05-13T02:15:55.732Z,2.40
2019-05-13T02:18:25.201Z,2.10
2019-05-13T02:20:56.033Z,1.90
2019-05-13T02:23:25.563Z,1.60
2019-05-13T02:25:55.100Z,1.90
2019-05-13T02:28:25.280Z,1.70
2019-05-13T02:30:56.574Z,1.50
2019-05-13T02:33:25.844Z,1.45
2019-05-13T02:35:55.383Z,1.60
2019-05-13T02:38:30.146Z,1.57
2019-05-13T02:40:55.909Z,1.70
2019-05-13T02:43:25.523Z,1.72
2019-05-13T02:45:54.792Z,1.40
2019-05-13T02:48:24.474Z,2.02
2019-05-13T02:50:54.552Z,1.60
2019-05-13T02:53:24.560Z,1.35
2019-05-13T02:55:54.519Z,1.57
2019-05-13T02:58:25.148Z,1.60
2019-05-13T03:00:54.908Z,1.82
2019-05-13T03:03:24.431Z,1.70
2019-05-13T03:05:54.363Z,1.70
2019-05-13T03:08:39.243Z,1.90
2019-05-13T03:10:55.313Z,2.00
2019-05-13T03:13:24.583Z,1.67
2019-05-13T03:16:02.857Z,1.85
2019-05-13T03:18:33.466Z,2.40
2019-05-13T03:21:04.178Z,2.00
2019-05-13T03:23:34.087Z,2.72
2019-05-13T03:26:03.720Z,2.42
2019-05-13T03:28:33.952Z,1.70
2019-05-13T03:31:06.547Z,1.90
2019-05-13T03:33:36.449Z,2.10
2019-05-13T03:36:07.854Z,2.35
2019-05-13T03:38:58.035Z,1.80
2019-05-13T03:41:12.180Z,2.40
2019-05-13T03:43:43.329Z,2.00
2019-05-13T03:46:13.793Z,2.33
2019-05-13T03:48:43.279Z,2.37
2019-05-13T03:51:13.624Z,2.20
2019-05-13T03:53:43.525Z,2.30
2019-05-13T03:56:13.397Z,1.85
2019-05-13T03:58:43.678Z,2.95
2019-05-13T04:01:13.670Z,3.10
2019-05-13T04:03:44.179Z,2.30
2019-05-13T04:06:14.219Z,2.22
2019-05-13T04:08:44.290Z,2.45
2019-05-13T04:11:14.068Z,2.75
2019-05-13T04:13:43.585Z,1.95
2019-05-13T04:16:13.492Z,2.30
2019-05-13T04:18:43.386Z,2.45
2019-05-13T04:21:13.474Z,2.37
2019-05-13T04:23:43.773Z,2.90
2019-05-13T04:26:14.607Z,2.80
2019-05-13T04:28:44.190Z,2.80
2019-05-13T04:31:14.687Z,2.37
2019-05-13T04:33:44.443Z,2.47
2019-05-13T04:36:14.143Z,3.77
2019-05-13T04:38:44.449Z,3.30
2019-05-13T04:41:14.051Z,3.65
2019-05-13T04:43:44.333Z,3.87
2019-05-13T04:46:14.509Z,2.60
2019-05-13T04:48:44.816Z,2.62
2019-05-13T04:51:14.599Z,2.83
2019-05-13T04:53:44.198Z,3.02
2019-05-13T04:56:14.325Z,2.50
2019-05-13T04:58:44.124Z,2.72
2019-05-13T05:01:52.170Z,2.80
2019-05-13T05:04:30.541Z,2.77
2019-05-13T05:07:26.382Z,2.75
2019-05-13T05:10:34.727Z,2.95
2019-05-13T05:13:28.798Z,3.15
2019-05-13T05:16:21.983Z,3.67
2019-05-13T05:19:01.800Z,2.55
2019-05-13T05:22:02.890Z,3.27
2019-05-13T05:24:41.355Z,2.75
2019-05-13T05:27:36.372Z,3.10
2019-05-13T05:30:36.250Z,3.60
2019-05-13T05:34:06.372Z,2.90
2019-05-13T05:36:49.257Z,2.50
2019-05-13T05:39:27.024Z,1.60
2019-05-13T05:41:58.096Z,2.10
2019-05-13T05:44:32.484Z,1.60
2019-05-13T05:47:03.400Z,1.60
2019-05-13T05:49:32.734Z,1.60
2019-05-13T05:52:05.506Z,1.30
2019-05-13T05:54:42.158Z,1.40
2019-05-13T05:57:12.259Z,1.82
2019-05-13T05:59:42.558Z,1.57
2019-05-13T06:02:12.477Z,1.50
2019-05-13T06:04:43.321Z,1.40
2019-05-13T06:07:13.950Z,1.40
2019-05-13T06:09:43.524Z,1.30
2019-05-13T06:12:13.559Z,1.50
2019-05-13T06:14:43.171Z,1.20
2019-05-13T06:17:12.757Z,1.40
2019-05-13T06:19:42.366Z,1.40
2019-05-13T06:22:12.439Z,1.22
2019-05-13T06:24:42.481Z,1.30
2019-05-13T06:27:11.999Z,1.40
2019-05-13T06:29:42.355Z,1.20
2019-05-13T06:32:21.450Z,1.20
2019-05-13T06:34:43.289Z,1.55
2019-05-13T06:37:12.637Z,1.17
2019-05-13T06:39:42.399Z,1.50
2019-05-13T06:42:11.833Z,1.32
2019-05-13T06:44:42.155Z,1.37
2019-05-13T06:47:11.836Z,1.30
2019-05-13T06:49:42.871Z,1.30
2019-05-13T06:52:12.292Z,1.30
2019-05-13T06:54:42.072Z,1.40
2019-05-13T06:57:13.368Z,1.10
2019-05-13T06:59:43.158Z,1.47
2019-05-13T07:02:12.650Z,1.10
2019-05-13T07:04:42.164Z,1.20
2019-05-13T07:07:16.968Z,1.00
2019-05-13T07:09:43.125Z,1.20
2019-05-13T07:12:12.390Z,1.30
2019-05-13T07:14:41.931Z,1.20
2019-05-13T07:17:12.288Z,1.23
2019-05-13T07:19:42.170Z,1.00
2019-05-13T07:22:11.758Z,1.00
2019-05-13T07:24:41.610Z,1.30
2019-05-13T07:27:12.196Z,1.30
2019-05-13T07:29:42.324Z,1.20
2019-05-13T07:32:12.146Z,1.33
2019-05-13T07:34:43.864Z,1.17
2019-05-13T07:37:12.561Z,1.50
2019-05-13T07:39:42.312Z,1.43
2019-05-13T07:42:12.468Z,1.70
2019-05-13T07:44:41.917Z,1.50
2019-05-13T07:47:11.790Z,1.30
2019-05-13T07:49:41.989Z,1.53
2019-05-13T07:52:11.883Z,1.40
2019-05-13T07:54:41.995Z,1.60
2019-05-13T07:57:12.392Z,1.40
2019-05-13T07:59:42.093Z,1.07
2019-05-13T08:02:12.516Z,1.60
2019-05-13T08:04:42.228Z,1.20
2019-05-13T08:07:12.192Z,1.70
2019-05-13T08:09:42.110Z,1.40
2019-05-13T08:12:14.408Z,1.30
2019-05-13T08:14:43.657Z,1.30
2019-05-13T08:17:13.571Z,1.20
2019-05-13T08:19:43.302Z,1.30
2019-05-13T08:22:12.896Z,1.50
2019-05-13T08:24:42.594Z,1.07
2019-05-13T08:27:12.427Z,1.10
2019-05-13T08:29:42.309Z,1.10
2019-05-13T08:32:11.953Z,1.30
2019-05-13T08:34:41.900Z,1.33
2019-05-13T08:37:11.421Z,1.30
2019-05-13T08:39:41.726Z,0.90
2019-05-13T08:42:15.947Z,1.43
2019-05-13T08:44:42.748Z,1.33
2019-05-13T08:47:12.365Z,1.80
2019-05-13T08:49:41.777Z,1.80
2019-05-13T08:52:12.100Z,1.10
2019-05-13T08:54:42.094Z,1.30
2019-05-13T08:57:11.953Z,1.50
2019-05-13T08:59:42.405Z,1.20
2019-05-13T09:02:11.884Z,1.23
2019-05-13T09:04:42.244Z,1.20
2019-05-13T09:07:12.263Z,1.10
2019-05-13T09:09:42.072Z,1.67
2019-05-13T09:12:20.937Z,1.20
2019-05-13T09:14:43.166Z,1.20
2019-05-13T09:17:12.783Z,1.17
2019-05-13T09:19:42.054Z,1.30
2019-05-13T09:22:12.430Z,1.30
2019-05-13T09:24:42.765Z,1.10
2019-05-13T09:27:12.362Z,1.17
2019-05-13T09:29:42.686Z,1.10
2019-05-13T09:32:12.676Z,1.10
2019-05-13T09:34:42.405Z,1.10
2019-05-13T09:37:12.313Z,0.93
2019-05-13T09:39:42.014Z,1.10
2019-05-13T09:42:12.704Z,0.90
2019-05-13T09:44:42.209Z,1.10
2019-05-13T09:47:12.536Z,0.83
2019-05-13T09:49:42.387Z,1.10
2019-05-13T09:52:14.406Z,1.00
2019-05-13T09:54:43.755Z,1.10
2019-05-13T09:57:13.040Z,1.10
2019-05-13T09:59:42.664Z,0.90
2019-05-13T10:02:12.728Z,1.03
2019-05-13T10:04:43.747Z,0.87
2019-05-13T10:07:13.551Z,0.90
2019-05-13T10:09:44.488Z,1.00
2019-05-13T10:12:14.491Z,1.03
2019-05-13T10:14:43.761Z,1.30
2019-05-13T10:17:13.408Z,0.90
2019-05-13T10:19:42.910Z,0.90
2019-05-13T10:22:12.286Z,0.80
2019-05-13T10:24:42.232Z,1.10
2019-05-13T10:27:12.595Z,1.10
2019-05-13T10:29:42.919Z,1.00
2019-05-13T10:32:12.489Z,0.90
2019-05-13T10:34:42.779Z,1.10
2019-05-13T10:37:12.606Z,0.90
2019-05-13T10:39:42.213Z,0.90
2019-05-13T10:42:12.236Z,0.90
2019-05-13T10:44:42.351Z,1.23
2019-05-13T10:47:12.195Z,1.00
2019-05-13T10:49:42.401Z,1.00
2019-05-13T10:52:14.633Z,1.00
2019-05-13T10:54:43.898Z,0.90
2019-05-13T10:57:13.708Z,0.83
2019-05-13T10:59:43.215Z,0.97
2019-05-13T11:02:13.415Z,1.03
2019-05-13T11:04:42.825Z,0.90
2019-05-13T11:07:12.271Z,0.73
2019-05-13T11:09:41.962Z,0.83
2019-05-13T11:12:12.540Z,0.90
2019-05-13T11:14:42.357Z,0.90
2019-05-13T11:17:13.079Z,0.97
2019-05-13T11:19:42.828Z,1.03
2019-05-13T11:22:12.460Z,1.00
2019-05-13T11:24:43.131Z,0.80
2019-05-13T11:27:12.961Z,0.90
2019-05-13T11:29:42.408Z,0.90
2019-05-13T11:32:13.319Z,1.10
2019-05-13T11:34:42.856Z,1.00
2019-05-13T11:37:12.456Z,0.90
2019-05-13T11:39:42.870Z,0.87
2019-05-13T11:42:13.752Z,0.90
2019-05-13T11:44:43.226Z,2.00
2019-05-13T11:47:12.821Z,0.87
2019-05-13T11:49:42.670Z,0.90
2019-05-13T11:52:12.279Z,1.00
2019-05-13T11:54:42.481Z,1.03
2019-05-13T11:57:12.606Z,1.00
2019-05-13T11:59:43.013Z,1.00
2019-05-13T12:02:13.609Z,0.90
2019-05-13T12:04:44.014Z,0.80
2019-05-13T12:07:13.699Z,0.93
2019-05-13T12:09:43.147Z,0.97
2019-05-13T12:12:13.594Z,0.90
2019-05-13T12:15:04.980Z,0.93
2019-05-13T12:17:14.487Z,1.03
2019-05-13T12:19:44.137Z,0.87
2019-05-13T12:22:13.609Z,0.80
2019-05-13T12:24:43.015Z,1.00
2019-05-13T12:27:12.274Z,1.00
2019-05-13T12:29:42.979Z,1.20
2019-05-13T12:32:13.703Z,0.80
2019-05-13T12:37:14.389Z,1.00
2019-05-13T12:39:44.203Z,0.90
2019-05-13T12:42:13.537Z,0.90
2019-05-13T12:45:00.328Z,1.00
2019-05-13T12:47:14.136Z,1.03
2019-05-13T12:49:44.114Z,0.80
2019-05-13T12:52:13.710Z,0.97
2019-05-13T12:57:16.222Z,0.73
2019-05-13T12:59:46.053Z,0.90
2019-05-13T13:02:15.329Z,0.90
2019-05-13T13:05:07.843Z,1.00
2019-05-13T13:07:15.603Z,1.00
2019-05-13T13:09:44.874Z,1.00
2019-05-13T13:12:14.148Z,1.13
2019-05-13T13:14:44.626Z,1.00
2019-05-13T13:17:14.073Z,0.90
2019-05-13T13:19:43.627Z,1.00
2019-05-13T13:22:13.893Z,0.80
2019-05-13T13:24:50.782Z,0.80
2019-05-13T13:27:25.565Z,0.90
2019-05-13T13:29:46.156Z,1.00
2019-05-13T13:32:15.437Z,0.90
2019-05-13T13:34:44.719Z,1.00
2019-05-13T13:37:14.259Z,1.00
2019-05-13T13:39:44.081Z,0.90
2019-05-13T13:42:13.678Z,1.00
2019-05-13T13:44:43.306Z,1.00
2019-05-13T13:47:14.825Z,0.90
2019-05-13T13:49:44.167Z,1.00
2019-05-13T13:52:16.279Z,0.80
2019-05-13T13:54:45.362Z,0.90
2019-05-13T13:57:14.653Z,0.93
2019-05-13T14:00:14.070Z,0.80
2019-05-13T14:02:16.561Z,0.93
2019-05-13T14:04:45.835Z,1.00
2019-05-13T14:06:33.066Z,1.20
2019-05-13T14:06:33.331Z,0.90
2019-05-13T14:07:27.822Z,0.90
2019-05-13T14:09:46.694Z,0.80
2019-05-13T14:12:15.965Z,0.87
2019-05-13T14:14:45.240Z,0.87
2019-05-13T14:17:14.513Z,1.00
2019-05-13T14:19:43.784Z,0.80
2019-05-13T14:22:13.129Z,0.87
2019-05-13T14:24:42.805Z,0.80
2019-05-13T14:27:12.362Z,0.93
2019-05-13T14:29:48.557Z,0.80
2019-05-13T14:32:13.203Z,1.00
2019-05-13T14:34:42.485Z,0.90
2019-05-13T14:37:12.093Z,0.80
2019-05-13T14:39:41.702Z,1.00
2019-05-13T14:42:11.834Z,0.90
2019-05-13T14:44:41.094Z,0.90
2019-05-13T14:47:12.516Z,0.90
2019-05-13T14:49:42.335Z,1.10
2019-05-13T14:52:12.135Z,1.00
2019-05-13T14:54:42.175Z,0.90
2019-05-13T14:57:14.886Z,1.10
2019-05-13T14:59:43.158Z,0.87
2019-05-13T15:02:12.463Z,1.00
2019-05-13T15:04:42.037Z,0.77
2019-05-13T15:07:12.372Z,1.03
2019-05-13T15:09:42.227Z,0.90
2019-05-13T15:12:11.642Z,0.90
2019-05-13T15:14:42.918Z,0.87
2019-05-13T15:17:12.870Z,0.97
2019-05-13T15:19:42.387Z,0.90
2019-05-13T15:22:15.347Z,0.90
2019-05-13T15:24:42.659Z,0.80
2019-05-13T15:27:11.927Z,0.80
2019-05-13T15:29:41.759Z,0.80
2019-05-13T15:32:11.297Z,0.90
2019-05-13T15:34:42.521Z,0.80
2019-05-13T15:37:11.522Z,0.80
2019-05-13T15:39:42.569Z,1.07
2019-05-13T15:42:12.117Z,0.80
2019-05-13T15:44:41.541Z,0.80
2019-05-13T15:47:22.677Z,0.80
2019-05-13T15:49:41.829Z,0.77
2019-05-13T15:52:11.933Z,0.90
2019-05-13T15:54:41.580Z,0.80
2019-05-13T15:57:11.893Z,0.90
2019-05-13T15:59:41.649Z,0.90
2019-05-13T16:02:11.794Z,0.80
2019-05-13T16:04:49.951Z,0.80
2019-05-13T16:07:12.436Z,0.73
2019-05-13T16:09:42.186Z,0.80
2019-05-13T16:12:12.157Z,0.90
2019-05-13T16:14:42.072Z,0.60
2019-05-13T16:17:12.278Z,1.00
2019-05-13T16:19:42.144Z,0.90
2019-05-13T16:22:12.070Z,0.90
2019-05-13T16:24:41.748Z,1.00
2019-05-13T16:27:11.844Z,0.97
2019-05-13T16:29:42.208Z,0.87
2019-05-13T16:32:12.141Z,0.80
2019-05-13T16:34:42.471Z,0.83
2019-05-13T16:37:11.872Z,0.70
2019-05-13T16:39:41.584Z,1.00
2019-05-13T16:42:11.710Z,1.00
2019-05-13T16:44:43.021Z,0.80
2019-05-13T16:47:12.501Z,1.00
2019-05-13T16:49:41.772Z,0.80
2019-05-13T16:52:11.819Z,1.10
2019-05-13T16:54:42.406Z,1.00
2019-05-13T16:57:12.272Z,0.70
2019-05-13T16:59:41.874Z,0.90
2019-05-13T17:02:12.595Z,0.70
2019-05-13T17:04:42.366Z,0.90
2019-05-13T17:07:11.924Z,0.80
2019-05-13T17:09:41.640Z,1.00
2019-05-13T17:12:12.888Z,0.90
2019-05-13T17:14:42.382Z,0.90
2019-05-13T17:17:12.013Z,0.90
2019-05-13T17:19:42.313Z,0.80
2019-05-13T17:22:11.762Z,0.97
2019-05-13T17:24:42.619Z,0.83
2019-05-13T17:27:12.298Z,1.00
2019-05-13T17:29:41.549Z,0.73
2019-05-13T17:32:11.602Z,0.97
2019-05-13T17:34:45.281Z,0.97
2019-05-13T17:37:12.251Z,0.90
2019-05-13T17:39:41.681Z,0.80
2019-05-13T17:42:12.164Z,1.10
2019-05-13T17:44:46.305Z,0.90
2019-05-13T17:47:13.846Z,0.90
2019-05-13T17:49:43.118Z,1.20
2019-05-13T17:52:12.389Z,1.20
2019-05-13T17:54:42.814Z,1.00
2019-05-13T17:57:12.563Z,0.90
2019-05-13T17:59:42.139Z,0.70
2019-05-13T18:02:11.968Z,0.77
2019-05-13T18:04:41.746Z,0.90
2019-05-13T18:07:12.183Z,0.90
2019-05-13T18:09:42.472Z,0.80
2019-05-13T18:12:12.066Z,0.80
2019-05-13T18:14:41.426Z,0.83
2019-05-13T18:17:12.504Z,0.70
2019-05-13T18:19:42.246Z,0.97
2019-05-13T18:22:11.926Z,0.83
2019-05-13T18:24:41.540Z,0.87
2019-05-13T18:27:12.226Z,0.90
2019-05-13T18:29:42.130Z,0.90
2019-05-13T18:32:12.399Z,0.70
2019-05-13T18:34:41.840Z,0.83
2019-05-13T18:37:11.961Z,0.67
2019-05-13T18:39:41.715Z,0.70
2019-05-13T18:42:11.642Z,0.90
2019-05-13T18:44:42.128Z,0.60
2019-05-13T18:47:12.231Z,0.80
2019-05-13T18:49:42.310Z,0.90
2019-05-13T18:52:12.038Z,0.70
2019-05-13T18:54:42.083Z,0.70
2019-05-13T18:57:12.203Z,0.90
2019-05-13T18:59:41.841Z,0.80
2019-05-13T19:02:12.234Z,0.80
2019-05-13T19:04:42.116Z,0.90
2019-05-13T19:07:11.724Z,0.80
2019-05-13T19:09:41.832Z,1.30
2019-05-13T19:12:11.708Z,0.90
2019-05-13T19:14:41.317Z,0.80
2019-05-13T19:17:12.319Z,0.80
2019-05-13T19:19:42.269Z,0.80
2019-05-13T19:22:12.360Z,1.00
2019-05-13T19:24:41.788Z,0.80
2019-05-13T19:27:12.053Z,1.00
2019-05-13T19:29:42.479Z,0.80
2019-05-13T19:32:12.555Z,0.90
2019-05-13T19:34:42.536Z,0.80
2019-05-13T19:37:12.249Z,1.00
2019-05-13T19:39:41.517Z,1.20
2019-05-13T19:42:11.657Z,1.10
2019-05-13T19:44:42.023Z,1.20
2019-05-13T19:47:12.389Z,1.03
2019-05-13T19:49:46.085Z,1.00
2019-05-13T19:52:13.159Z,1.20
2019-05-13T19:54:42.428Z,1.00
2019-05-13T19:57:12.076Z,1.10
2019-05-13T19:59:42.668Z,0.80
2019-05-13T20:02:12.450Z,0.80
2019-05-13T20:04:41.736Z,0.90
2019-05-13T20:07:11.967Z,0.90
2019-05-13T20:09:42.533Z,1.00
2019-05-13T20:12:12.181Z,1.03
2019-05-13T20:14:42.604Z,0.93
2019-05-13T20:17:12.372Z,0.97
2019-05-13T20:19:50.125Z,1.00
2019-05-13T20:22:13.272Z,1.00
2019-05-13T20:24:42.544Z,1.00
2019-05-13T20:27:12.183Z,1.47
2019-05-13T20:29:41.813Z,0.90
2019-05-13T20:32:11.689Z,1.00
2019-05-13T20:34:41.059Z,1.07
2019-05-13T20:37:12.456Z,0.80
2019-05-13T20:39:42.421Z,0.90
2019-05-13T20:42:12.445Z,1.30
2019-05-13T20:44:42.299Z,0.87
2019-05-13T20:47:11.598Z,0.93
2019-05-13T20:49:41.697Z,0.90
2019-05-13T20:52:14.990Z,0.90
2019-05-13T20:54:42.778Z,0.97
2019-05-13T20:57:12.061Z,0.97
2019-05-13T20:59:41.686Z,1.00
2019-05-13T21:02:12.422Z,0.90
2019-05-13T21:04:42.141Z,0.80
2019-05-13T21:07:11.755Z,0.87
2019-05-13T21:09:42.323Z,1.03
2019-05-13T21:12:12.182Z,1.00
2019-05-13T21:14:41.759Z,0.80
2019-05-13T21:17:12.192Z,1.00
2019-05-13T21:19:42.839Z,1.10
2019-05-13T21:22:12.660Z,1.10
2019-05-13T21:24:42.278Z,1.10
2019-05-13T21:27:12.043Z,1.10
2019-05-13T21:29:41.685Z,1.00
2019-05-13T21:32:11.793Z,1.20
2019-05-13T21:34:41.518Z,1.30
2019-05-13T21:37:11.575Z,1.80
2019-05-13T21:39:41.399Z,2.20
2019-05-13T21:42:11.458Z,1.20
2019-05-13T21:44:41.985Z,1.10
2019-05-13T21:47:11.709Z,1.30
2019-05-13T21:49:42.316Z,1.30
2019-05-13T21:52:12.052Z,1.03
2019-05-13T21:54:42.171Z,1.30
2019-05-13T21:57:11.657Z,1.23
2019-05-13T21:59:41.475Z,1.10
2019-05-13T22:02:11.271Z,1.30
2019-05-13T22:04:41.255Z,1.43
2019-05-13T22:07:12.211Z,1.10
2019-05-13T22:09:42.256Z,1.20
2019-05-13T22:12:11.762Z,1.30
2019-05-13T22:14:41.334Z,1.20
2019-05-13T22:17:12.355Z,1.17
2019-05-13T22:19:42.062Z,1.10
2019-05-13T22:22:11.684Z,1.07
2019-05-13T22:24:41.833Z,1.20
2019-05-13T22:27:13.262Z,1.40
2019-05-13T22:29:42.268Z,1.12
2019-05-13T22:32:11.540Z,1.07
2019-05-13T22:34:41.895Z,1.10
2019-05-13T22:37:11.788Z,1.20
2019-05-13T22:39:42.059Z,1.20
2019-05-13T22:42:12.494Z,1.40
2019-05-13T22:44:42.041Z,1.40
2019-05-13T22:47:13.445Z,1.20
2019-05-13T22:49:42.299Z,1.20
2019-05-13T22:52:11.566Z,1.50
2019-05-13T22:54:41.300Z,1.30
2019-05-13T22:57:11.913Z,1.70
2019-05-13T22:59:41.730Z,1.50
2019-05-13T23:02:11.093Z,1.42
2019-05-13T23:04:41.855Z,1.30
2019-05-13T23:07:11.800Z,1.40
2019-05-13T23:09:41.739Z,1.20
2019-05-13T23:12:12.343Z,1.40
2019-05-13T23:14:41.724Z,1.50
2019-05-13T23:17:12.463Z,1.40
2019-05-13T23:19:41.942Z,1.80
2019-05-13T23:22:12.085Z,1.40
2019-05-13T23:24:41.843Z,1.42
2019-05-13T23:27:11.269Z,1.30
2019-05-13T23:29:41.221Z,1.35
2019-05-13T23:32:12.071Z,1.30
2019-05-13T23:34:42.256Z,1.82
2019-05-13T23:37:11.918Z,1.40
2019-05-13T23:39:41.763Z,1.45
2019-05-13T23:42:12.132Z,1.60
2019-05-13T23:44:41.784Z,1.60
2019-05-13T23:47:11.644Z,1.40
2019-05-13T23:49:42.103Z,1.20
2019-05-13T23:52:12.000Z,1.32
2019-05-13T23:54:42.429Z,1.57
2019-05-13T23:57:12.050Z,1.40
2019-05-13T23:59:42.110Z,1.50
